Time;durP1;ratioP1;P1;durP2;ratioP2;P2;SDS_P1;SDS_P2;PMS_P1;PMS_P2;Temp;Humidity;BMP_temperature;BMP_pressure;BME280_temperature;BME280_humidity;BME280_pressure;Samples;Min_cycle;Max_cycle;Signal;HPM_P1;HPM_P2
2022/05/28 00:00:56;;;;;;;;;;;;;;;21.59;44.48;102259.47;6120919;23;19919;-77
2022/05/28 00:03:22;;;;;;;;;;;;;;;21.58;44.63;102257.75;6146305;23;19912;-77
2022/05/28 00:05:47;;;;;;;;;;;;;;;21.58;44.56;102255.13;6145233;23;19991;-77
2022/05/28 00:08:12;;;;;;;;;;;;;;;21.59;44.68;102256.00;6120588;23;19912;-77
2022/05/28 00:10:38;;;;;;;;;;;;;;;21.59;44.64;102250.75;6143978;23;19909;-78
2022/05/28 00:13:03;;;;;;;;;;;;;;;21.57;44.84;102251.63;6170756;23;19916;-77
2022/05/28 00:15:29;;;;;;;;;;;;;;;21.59;44.85;102253.38;6117658;23;19919;-77
2022/05/28 00:17:54;;;;;;;;;;;;;;;21.57;44.69;102251.63;6141786;23;20245;-77
2022/05/28 00:20:21;;;;;;;;;;;;;;;21.59;44.93;102258.63;6140672;23;22308;-77
2022/05/28 00:22:46;;;;;;;;;;;;;;;21.59;44.62;102248.16;6141268;23;19940;-78
2022/05/28 00:25:15;;;;;;;;;;;;;;;21.57;44.70;102251.63;6115622;23;19913;-76
2022/05/28 00:27:40;;;;;;;;;;;;;;;21.59;44.73;102253.38;6165709;23;19983;-77
2022/05/28 00:30:07;;;;;;;;;;;;;;;21.57;44.73;102241.16;6165609;23;19932;-77
2022/05/28 00:32:32;;;;;;;;;;;;;;;21.57;44.79;102233.28;6139685;23;19913;-77
2022/05/28 00:35:00;;;;;;;;;;;;;;;21.56;44.80;102234.19;6116551;23;20285;-77
2022/05/28 00:37:25;;;;;;;;;;;;;;;21.57;44.87;102238.53;6165846;23;19931;-78
2022/05/28 00:39:51;;;;;;;;;;;;;;;21.56;45.03;102234.19;6140743;23;19916;-79
2022/05/28 00:42:16;;;;;;;;;;;;;;;21.55;44.89;102232.41;6117875;23;19919;-79
2022/05/28 00:44:41;;;;;;;;;;;;;;;21.55;44.82;102237.66;6116676;23;19985;-79
2022/05/28 00:47:06;;;;;;;;;;;;;;;21.56;44.95;102230.69;6117191;23;19913;-78
2022/05/28 00:49:32;;;;;;;;;;;;;;;21.56;45.03;102228.06;6116472;23;19913;-78
2022/05/28 00:51:59;;;;;;;;;;;;;;;21.54;45.21;102225.44;6117728;23;19965;-78
2022/05/28 00:54:24;;;;;;;;;;;;;;;21.55;45.06;102224.56;6166936;23;19917;-78
2022/05/28 00:56:50;;;;;;;;;;;;;;;21.54;45.32;102230.69;6117584;23;19967;-78
2022/05/28 00:59:16;;;;;;;;;;;;;;;21.54;45.10;102227.22;6117372;23;19951;-79
2022/05/28 01:01:41;;;;;;;;;;;;;;;21.54;45.15;102235.06;6141799;23;19916;-79
2022/05/28 01:04:19;;;;;;;;;;;;;;;21.54;45.05;102235.94;6141926;23;19940;-79
2022/05/28 01:07:10;;;;;;;;;;;;;;;21.54;45.32;102241.16;6141491;23;19988;-79
2022/05/28 01:09:54;;;;;;;;;;;;;;;21.54;45.26;102230.69;6133231;23;19909;-79
2022/05/28 01:12:39;;;;;;;;;;;;;;;21.53;45.30;102230.69;6141902;23;19908;-79
2022/05/28 01:15:08;;;;;;;;;;;;;;;21.53;45.19;102222.81;6141644;23;19916;-79
2022/05/28 01:17:37;;;;;;;;;;;;;;;21.53;45.38;102231.56;6141540;23;19920;-79
2022/05/28 01:20:23;;;;;;;;;;;;;;;21.53;45.30;102225.44;6141269;23;19915;-79
2022/05/28 01:22:58;;;;;;;;;;;;;;;21.53;45.24;102231.56;6133487;23;19916;-79
2022/05/28 01:25:28;;;;;;;;;;;;;;;21.52;45.31;102237.69;6131665;23;20207;-78
2022/05/28 01:28:20;;;;;;;;;;;;;;;21.54;45.19;102235.06;6132065;23;19908;-78
2022/05/28 01:30:46;;;;;;;;;;;;;;;21.54;45.42;102243.78;6155266;23;20241;-77
2022/05/28 01:33:13;;;;;;;;;;;;;;;21.54;45.41;102235.94;6134016;23;19939;-77
2022/05/28 01:35:38;;;;;;;;;;;;;;;21.54;45.09;102241.16;6133381;23;19909;-78
2022/05/28 01:38:05;;;;;;;;;;;;;;;21.52;45.27;102237.69;6133712;23;19916;-78
2022/05/28 01:40:32;;;;;;;;;;;;;;;21.51;45.43;102233.34;6160035;23;19908;-77
2022/05/28 01:43:00;;;;;;;;;;;;;;;21.51;45.58;102233.34;6133842;23;19909;-78
2022/05/28 01:45:28;;;;;;;;;;;;;;;21.51;45.39;102235.97;6161462;23;19988;-77
2022/05/28 01:47:54;;;;;;;;;;;;;;;21.51;45.46;102238.56;6134671;23;19924;-77
2022/05/28 01:50:22;;;;;;;;;;;;;;;21.50;45.50;102234.19;6134518;23;19936;-78
2022/05/28 01:52:48;;;;;;;;;;;;;;;21.49;45.59;102229.84;6133775;23;19916;-78
2022/05/28 01:55:15;;;;;;;;;;;;;;;21.50;45.43;102231.56;6150282;23;20258;-78
2022/05/28 01:57:41;;;;;;;;;;;;;;;21.50;45.69;102234.19;6128188;23;19951;-78
2022/05/28 02:00:06;;;;;;;;;;;;;;;21.50;45.57;102233.34;6130322;23;19909;-78
2022/05/28 02:02:32;;;;;;;;;;;;;;;21.50;45.50;102239.44;6127913;23;19913;-77
2022/05/28 02:04:57;;;;;;;;;;;;;;;21.50;45.42;102238.56;6104042;23;20282;-77
2022/05/28 02:07:22;;;;;;;;;;;;;;;;;;6103991;23;19913;-77
2022/05/28 02:09:47;;;;;;;;;;;;;;;;;;6128844;23;19920;-77
2022/05/28 02:12:18;;;;;;;;;;;;;;;21.48;45.45;102235.09;6128299;23;20345;-77
2022/05/28 02:14:43;;;;;;;;;;;;;;;;;;6128082;23;19940;-77
2022/05/28 02:17:08;;;;;;;;;;;;;;;21.48;45.36;102237.69;6128619;23;19960;-77
2022/05/28 02:19:43;;;;;;;;;;;;;;;21.48;45.48;102248.19;6131242;23;19913;-77
2022/05/28 02:22:28;;;;;;;;;;;;;;;21.48;45.35;102242.94;6134842;23;19909;-77
2022/05/28 02:24:54;;;;;;;;;;;;;;;;;;6133605;23;19995;-77
2022/05/28 02:27:21;;;;;;;;;;;;;;;21.47;45.53;102244.69;6131848;23;19909;-77
2022/05/28 02:29:46;;;;;;;;;;;;;;;21.47;45.46;102239.47;6129935;23;20281;-77
2022/05/28 02:32:19;;;;;;;;;;;;;;;21.48;45.44;102242.94;6104760;23;19917;-77
2022/05/28 02:34:45;;;;;;;;;;;;;;;21.47;45.34;102243.81;6130159;23;19940;-77
2022/05/28 02:37:14;;;;;;;;;;;;;;;21.47;45.53;102242.06;6104304;23;19913;-77
2022/05/28 02:39:40;;;;;;;;;;;;;;;21.47;45.26;102236.84;6127954;23;19913;-77
2022/05/28 02:42:06;;;;;;;;;;;;;;;21.46;45.49;102242.94;6127361;23;19920;-77
2022/05/28 02:44:31;;;;;;;;;;;;;;;21.46;45.45;102234.22;6127375;23;19920;-77
2022/05/28 02:46:56;;;;;;;;;;;;;;;21.45;45.40;102235.97;6102874;23;19917;-77
2022/05/28 02:49:23;;;;;;;;;;;;;;;21.46;45.52;102242.06;6102736;23;19993;-77
2022/05/28 02:51:48;;;;;;;;;;;;;;;21.45;45.26;102237.69;6126813;23;19955;-77
2022/05/28 02:54:14;;;;;;;;;;;;;;;21.45;45.50;102254.31;6143345;23;20388;-77
2022/05/28 02:56:39;;;;;;;;;;;;;;;21.43;45.38;102240.34;6158945;23;19960;-77
2022/05/28 02:59:05;;;;;;;;;;;;;;;21.44;45.48;102252.53;6107816;23;19917;-77
2022/05/28 03:01:33;;;;;;;;;;;;;;;21.43;45.53;102245.56;6108677;23;19919;-77
2022/05/28 03:03:58;;;;;;;;;;;;;;;21.43;45.33;102236.84;6133109;23;20392;-79
2022/05/28 03:06:24;;;;;;;;;;;;;;;21.43;45.32;102242.09;6109432;23;19912;-77
2022/05/28 03:08:49;;;;;;;;;;;;;;;21.43;45.47;102240.34;6134071;23;19913;-77
2022/05/28 03:11:14;;;;;;;;;;;;;;;21.44;45.38;102249.06;6159563;23;19932;-77
2022/05/28 03:13:41;;;;;;;;;;;;;;;21.42;45.51;102249.06;6135267;23;19912;-77
2022/05/28 03:16:06;;;;;;;;;;;;;;;21.43;45.50;102253.44;6125184;23;19964;-76
2022/05/28 03:18:31;;;;;;;;;;;;;;;21.42;45.33;102249.06;6150542;23;19916;-77
2022/05/28 03:20:56;;;;;;;;;;;;;;;21.42;45.29;102251.69;6174892;23;19957;-76
2022/05/28 03:23:22;;;;;;;;;;;;;;;21.42;45.44;102245.56;6148893;23;19917;-77
2022/05/28 03:25:47;;;;;;;;;;;;;;;21.42;45.32;102256.06;6148027;23;19917;-77
2022/05/28 03:28:12;;;;;;;;;;;;;;;21.41;45.53;102255.19;6147034;23;19932;-78
2022/05/28 03:30:37;;;;;;;;;;;;;;;21.41;45.46;102259.53;6145043;23;19908;-77
2022/05/28 03:33:03;;;;;;;;;;;;;;;21.41;45.29;102265.66;6159717;23;20278;-77
2022/05/28 03:35:28;;;;;;;;;;;;;;;21.41;45.42;102265.66;6133372;23;19912;-77
2022/05/28 03:37:53;;;;;;;;;;;;;;;21.40;45.43;102250.78;6108503;23;19917;-77
2022/05/28 03:40:19;;;;;;;;;;;;;;;21.40;45.20;102257.78;6159199;23;19955;-77
2022/05/28 03:42:44;;;;;;;;;;;;;;;21.40;45.27;102257.78;6159969;23;19924;-77
2022/05/28 03:45:09;;;;;;;;;;;;;;;21.40;45.28;102261.25;6135588;23;19908;-76
2022/05/28 03:47:35;;;;;;;;;;;;;;;21.40;45.31;102258.63;6134894;23;19988;-77
2022/05/28 03:50:00;;;;;;;;;;;;;;;21.39;45.27;102258.66;6134613;23;19913;-76
2022/05/28 03:52:26;;;;;;;;;;;;;;;21.39;45.27;102262.13;6135186;23;19998;-77
2022/05/28 03:54:51;;;;;;;;;;;;;;;21.40;45.28;102265.63;6111487;23;19925;-77
2022/05/28 03:57:24;;;;;;;;;;;;;;;21.39;45.25;102269.13;6136440;23;19908;-76
2022/05/28 03:59:49;;;;;;;;;;;;;;;21.38;45.33;102257.75;6135655;23;19909;-77
2022/05/28 04:02:15;;;;;;;;;;;;;;;21.39;45.28;102262.13;6135748;23;20380;-77
2022/05/28 04:04:40;;;;;;;;;;;;;;;21.38;45.17;102268.25;6135416;23;20340;-77
2022/05/28 04:07:06;;;;;;;;;;;;;;;21.39;45.37;102269.13;6161467;23;19957;-77
2022/05/28 04:09:31;;;;;;;;;;;;;;;21.38;45.14;102263.00;6135533;23;19912;-77
2022/05/28 04:11:57;;;;;;;;;;;;;;;21.40;45.40;102270.84;6110453;23;19974;-77
2022/05/28 04:14:22;;;;;;;;;;;;;;;21.37;45.35;102270.00;6161546;23;20241;-77
2022/05/28 04:16:47;;;;;;;;;;;;;;;21.39;45.21;102271.75;6160627;23;19999;-77
2022/05/28 04:19:12;;;;;;;;;;;;;;;21.37;45.35;102275.22;6133646;23;19912;-77
2022/05/28 04:21:38;;;;;;;;;;;;;;;21.39;45.17;102274.38;6133679;23;19944;-77
2022/05/28 04:24:04;;;;;;;;;;;;;;;21.39;45.36;102274.38;6158197;23;19909;-77
2022/05/28 04:26:29;;;;;;;;;;;;;;;21.39;45.17;102279.59;6162467;23;19983;-77
2022/05/28 04:28:55;;;;;;;;;;;;;;;21.39;45.38;102288.31;6136860;23;19908;-77
2022/05/28 04:31:20;;;;;;;;;;;;;;;21.39;45.12;102290.94;6111681;23;19923;-77
2022/05/28 04:33:45;;;;;;;;;;;;;;;21.37;45.32;102283.09;6161587;23;19939;-77
2022/05/28 04:36:10;;;;;;;;;;;;;;;21.39;45.28;102295.31;6135049;23;19963;-77
2022/05/28 04:38:36;;;;;;;;;;;;;;;21.39;45.36;102296.19;6134631;23;19924;-77
2022/05/28 04:41:01;;;;;;;;;;;;;;;21.39;45.24;102296.19;6110873;23;20340;-77
2022/05/28 04:43:26;;;;;;;;;;;;;;;21.39;45.19;102298.81;6135508;23;19912;-77
2022/05/28 04:45:51;;;;;;;;;;;;;;;21.40;45.06;102297.91;6139357;23;19912;-78
2022/05/28 04:48:17;;;;;;;;;;;;;;;21.41;45.03;102296.19;6164112;23;19928;-79
2022/05/28 04:50:42;;;;;;;;;;;;;;;21.41;45.10;102296.19;6135349;23;19915;-77
2022/05/28 04:53:07;;;;;;;;;;;;;;;21.42;45.28;102295.34;6134630;23;19909;-78
2022/05/28 04:55:33;;;;;;;;;;;;;;;21.43;45.30;102297.97;6142689;23;19923;-78
2022/05/28 04:57:58;;;;;;;;;;;;;;;;;;6140882;23;19928;-77
2022/05/28 05:00:23;;;;;;;;;;;;;;;;;;6166262;23;20230;-77
2022/05/28 05:02:48;;;;;;;;;;;;;;;21.48;45.22;102296.19;6138297;23;19987;-76
2022/05/28 05:05:14;;;;;;;;;;;;;;;21.48;45.13;102290.94;6137055;23;20325;-78
2022/05/28 05:07:39;;;;;;;;;;;;;;;21.51;45.13;102298.81;6135516;23;19943;-78
2022/05/28 05:10:05;;;;;;;;;;;;;;;21.53;45.03;102302.28;6134386;23;19913;-78
2022/05/28 05:12:30;;;;;;;;;;;;;;;21.54;45.17;102290.94;6134683;23;19919;-77
2022/05/28 05:14:55;;;;;;;;;;;;;;;21.55;45.13;102299.66;6134482;23;20223;-78
2022/05/28 05:17:20;;;;;;;;;;;;;;;21.58;45.12;102294.44;6109270;23;19937;-78
2022/05/28 05:19:46;;;;;;;;;;;;;;;21.60;45.42;102305.78;6133271;23;19920;-78
2022/05/28 05:22:11;;;;;;;;;;;;;;;21.60;45.20;102297.91;6109576;23;19917;-79
2022/05/28 05:24:36;;;;;;;;;;;;;;;21.61;45.18;102302.25;6134767;23;20318;-79
2022/05/28 05:27:02;;;;;;;;;;;;;;;21.65;45.12;102297.91;6159938;23;19995;-77
2022/05/28 05:29:27;;;;;;;;;;;;;;;21.66;45.17;102291.75;6159373;23;19908;-79
2022/05/28 05:31:53;;;;;;;;;;;;;;;21.67;45.11;102306.63;6159483;23;19936;-77
2022/05/28 05:34:18;;;;;;;;;;;;;;;21.65;45.12;102298.75;6108709;23;19920;-77
2022/05/28 05:36:43;;;;;;;;;;;;;;;21.67;45.29;102304.00;6109488;23;19920;-78
2022/05/28 05:39:08;;;;;;;;;;;;;;;21.71;45.22;102306.59;6134262;23;20334;-78
2022/05/28 05:41:37;;;;;;;;;;;;;;;21.76;45.12;102311.81;6108859;23;20334;-78
2022/05/28 05:44:02;;;;;;;;;;;;;;;21.79;45.10;102311.81;6159722;23;19908;-78
2022/05/28 05:46:29;;;;;;;;;;;;;;;21.75;45.39;102310.06;6158643;23;20384;-79
2022/05/28 05:48:54;;;;;;;;;;;;;;;21.78;45.33;102310.06;6132360;23;19908;-78
2022/05/28 05:51:19;;;;;;;;;;;;;;;21.84;44.97;102315.28;6131879;23;19919;-77
2022/05/28 05:53:44;;;;;;;;;;;;;;;21.87;44.99;102312.66;6131548;23;19960;-77
2022/05/28 05:56:10;;;;;;;;;;;;;;;21.86;45.32;102313.53;6108270;23;20322;-77
2022/05/28 05:58:35;;;;;;;;;;;;;;;21.88;45.08;102317.00;6157418;23;19947;-78
2022/05/28 06:01:02;;;;;;;;;;;;;;;21.90;44.90;102317.00;6157563;23;20304;-77
2022/05/28 06:03:28;;;;;;;;;;;;;;;21.93;44.79;102323.13;6131774;23;19915;-78
2022/05/28 06:06:01;;;;;;;;;;;;;;;21.96;44.52;102317.84;6157973;23;19932;-78
2022/05/28 06:08:26;;;;;;;;;;;;;;;21.96;44.52;102325.69;6157707;23;19915;-77
2022/05/28 06:10:52;;;;;;;;;;;;;;;22.00;44.71;102326.56;6157842;23;19913;-78
2022/05/28 06:13:17;;;;;;;;;;;;;;;22.01;44.59;102317.81;6131353;23;19946;-79
2022/05/28 06:15:42;;;;;;;;;;;;;;;22.04;44.30;102316.97;6108869;23;19960;-78
2022/05/28 06:18:08;;;;;;;;;;;;;;;22.00;44.56;102325.72;6163295;23;19912;-79
2022/05/28 06:20:34;;;;;;;;;;;;;;;21.83;43.74;102325.78;6134857;23;19913;-79
2022/05/28 06:23:00;;;;;;;;;;;;;;;21.78;43.56;102336.28;6137354;23;20023;-82
2022/05/28 06:25:25;;;;;;;;;;;;;;;21.65;41.41;102332.81;6112882;23;19913;-78
2022/05/28 06:27:50;;;;;;;;;;;;;;;21.51;41.67;102338.09;6110120;23;19948;-78
2022/05/28 06:30:16;;;;;;;;;;;;;;;21.44;40.39;102327.63;6136042;23;19920;-78
2022/05/28 06:32:41;;;;;;;;;;;;;;;21.37;39.79;102329.34;6136780;23;19937;-78
2022/05/28 06:35:07;;;;;;;;;;;;;;;21.32;39.79;102331.13;6135612;23;19919;-78
2022/05/28 06:37:32;;;;;;;;;;;;;;;21.36;39.26;102330.22;6163467;23;19913;-77
2022/05/28 06:39:58;;;;;;;;;;;;;;;21.30;39.84;102336.34;6113518;23;19919;-77
2022/05/28 06:42:23;;;;;;;;;;;;;;;21.25;39.07;102334.59;6140367;23;19912;-77
2022/05/28 06:44:49;;;;;;;;;;;;;;;21.27;38.66;102340.72;6138471;23;19908;-77
2022/05/28 06:47:14;;;;;;;;;;;;;;;21.27;38.50;102336.34;6110771;23;19962;-77
2022/05/28 06:49:39;;;;;;;;;;;;;;;21.26;37.65;102346.84;6168630;23;20322;-78
2022/05/28 06:52:05;;;;;;;;;;;;;;;21.25;37.26;102339.84;6140925;23;19916;-78
2022/05/28 06:54:30;;;;;;;;;;;;;;;21.18;37.48;102341.59;6142517;23;19956;-78
2022/05/28 06:56:55;;;;;;;;;;;;;;;21.13;37.39;102351.19;6139546;23;19913;-77
2022/05/28 06:59:20;;;;;;;;;;;;;;;21.14;36.89;102355.56;6138920;23;19944;-78
2022/05/28 07:01:46;;;;;;;;;;;;;;;21.21;36.64;102348.56;6166700;23;19908;-78
2022/05/28 07:04:11;;;;;;;;;;;;;;;21.22;36.07;102345.94;6140143;23;19924;-78
2022/05/28 07:06:37;;;;;;;;;;;;;;;21.23;36.25;102344.19;6164586;23;20261;-77
2022/05/28 07:09:05;;;;;;;;;;;;;;;21.29;36.55;102360.78;6138713;23;19912;-78
2022/05/28 07:11:30;;;;;;;;;;;;;;;21.29;36.92;102359.91;6139204;23;19956;-78
2022/05/28 07:13:55;;;;;;;;;;;;;;;21.32;37.01;102349.44;6139907;23;20214;-78
2022/05/28 07:16:21;;;;;;;;;;;;;;;21.31;36.95;102358.16;6140446;23;20364;-78
2022/05/28 07:18:46;;;;;;;;;;;;;;;21.39;36.86;102352.94;6115574;23;19940;-78
2022/05/28 07:21:12;;;;;;;;;;;;;;;21.40;36.85;102360.75;6115317;23;20384;-78
2022/05/28 07:23:37;;;;;;;;;;;;;;;21.34;36.86;102356.44;6166024;23;19917;-78
2022/05/28 07:26:04;;;;;;;;;;;;;;;21.32;36.93;102352.94;6140621;23;19984;-78
2022/05/28 07:28:31;;;;;;;;;;;;;;;21.33;36.86;102361.66;6141048;23;19912;-78
2022/05/28 07:30:56;;;;;;;;;;;;;;;21.34;37.22;102359.03;6166521;23;19937;-78
2022/05/28 07:33:21;;;;;;;;;;;;;;;21.35;36.98;102357.28;6147231;23;19998;-78
2022/05/28 07:35:47;;;;;;;;;;;;;;;21.32;36.96;102366.03;6123073;23;19916;-78
2022/05/28 07:38:12;;;;;;;;;;;;;;;21.29;37.35;102368.63;6121814;23;19916;-78
2022/05/28 07:40:37;;;;;;;;;;;;;;;21.29;37.34;102360.78;6145234;23;19909;-77
2022/05/28 07:43:03;;;;;;;;;;;;;;;21.29;37.21;102362.53;6143609;23;19915;-77
2022/05/28 07:45:29;;;;;;;;;;;;;;;21.34;36.68;102363.41;6167716;23;19911;-78
2022/05/28 07:47:54;;;;;;;;;;;;;;;21.28;36.61;102369.53;6116304;23;19919;-79
2022/05/28 07:50:20;;;;;;;;;;;;;;;21.14;36.11;102371.25;6117752;23;19913;-78
2022/05/28 07:52:47;;;;;;;;;;;;;;;21.09;36.10;102363.41;6167607;23;19909;-78
2022/05/28 07:55:13;;;;;;;;;;;;;;;21.07;36.11;102361.66;6138499;23;19921;-78
2022/05/28 07:57:39;;;;;;;;;;;;;;;21.19;35.73;102363.41;6117183;23;20285;-78
2022/05/28 08:00:04;;;;;;;;;;;;;;;21.14;35.46;102358.16;6118965;23;19912;-78
2022/05/28 08:02:29;;;;;;;;;;;;;;;21.15;35.11;102373.03;6144010;23;19931;-78
2022/05/28 08:04:56;;;;;;;;;;;;;;;21.24;35.54;102374.75;6143449;23;19913;-79
2022/05/28 08:07:21;;;;;;;;;;;;;;;21.31;35.70;102369.50;6168311;23;19912;-76
2022/05/28 08:09:47;;;;;;;;;;;;;;;21.27;35.72;102369.50;6169051;23;19913;-77
2022/05/28 08:12:13;;;;;;;;;;;;;;;21.25;36.03;102369.53;6142820;23;19940;-77
2022/05/28 08:14:38;;;;;;;;;;;;;;;21.37;35.93;102364.25;6113933;23;19913;-78
2022/05/28 08:17:04;;;;;;;;;;;;;;;21.47;36.24;102366.91;6140807;23;19958;-77
2022/05/28 08:19:31;;;;;;;;;;;;;;;21.59;36.43;102363.41;6140335;23;19916;-78
2022/05/28 08:24:39;;;;;;;;;;;;;;;21.62;36.68;102366.00;6169124;23;20291;-78
2022/05/28 08:27:05;;;;;;;;;;;;;;;21.64;36.81;102367.75;6118164;23;19928;-77
2022/05/28 08:29:30;;;;;;;;;;;;;;;21.63;37.24;102368.63;6142126;23;20211;-77
2022/05/28 08:31:56;;;;;;;;;;;;;;;21.60;37.35;102368.66;6142584;23;19912;-78
2022/05/28 08:34:21;;;;;;;;;;;;;;;21.59;37.30;102366.88;6116243;23;19913;-80
2022/05/28 08:36:46;;;;;;;;;;;;;;;21.57;37.51;102374.72;6140965;23;19963;-78
2022/05/28 08:39:12;;;;;;;;;;;;;;;21.54;37.93;102380.00;6166264;23;19920;-79
2022/05/28 08:41:42;;;;;;;;;;;;;;;21.55;38.12;102370.38;6140448;23;20341;-77
2022/05/28 08:44:22;;;;;;;;;;;;;;;21.59;37.97;102379.13;6141280;23;19908;-77
2022/05/28 08:46:52;;;;;;;;;;;;;;;21.53;37.96;102375.63;6138436;23;19912;-77
2022/05/28 08:49:21;;;;;;;;;;;;;;;21.51;38.08;102380.00;6166160;23;19952;-77
2022/05/28 08:51:55;;;;;;;;;;;;;;;21.53;38.25;102383.47;6138860;23;19909;-77
2022/05/28 08:54:36;;;;;;;;;;;;;;;21.59;38.04;102384.34;6140494;23;19923;-80
2022/05/28 08:57:11;;;;;;;;;;;;;;;21.60;38.09;102375.59;6140519;23;19931;-77
2022/05/28 08:59:57;;;;;;;;;;;;;;;21.64;38.13;102383.47;6163748;23;20317;-77
2022/05/28 09:02:28;;;;;;;;;;;;;;;21.64;38.14;102391.31;6138228;23;19996;-77
2022/05/28 09:04:55;;;;;;;;;;;;;;;21.65;38.39;102381.72;6139958;23;19935;-77
2022/05/28 09:07:22;;;;;;;;;;;;;;;21.66;38.26;102376.47;6139823;23;19908;-77
2022/05/28 09:09:49;;;;;;;;;;;;;;;21.68;38.30;102373.84;6138472;23;19920;-78
2022/05/28 09:12:17;;;;;;;;;;;;;;;21.69;38.30;102383.47;6138997;23;19909;-78
2022/05/28 09:14:42;;;;;;;;;;;;;;;21.71;38.47;102389.56;6138920;23;19909;-77
2022/05/28 09:17:08;;;;;;;;;;;;;;;21.69;38.56;102381.72;6163001;23;19960;-77
2022/05/28 09:19:35;;;;;;;;;;;;;;;21.66;38.38;102378.22;6164652;23;19920;-77
2022/05/28 09:22:01;;;;;;;;;;;;;;;21.64;38.53;102387.81;6138827;23;20310;-78
2022/05/28 09:24:27;;;;;;;;;;;;;;;21.64;38.50;102388.69;6138565;23;19939;-78
2022/05/28 09:27:11;;;;;;;;;;;;;;;21.66;38.66;102376.47;6164070;23;19908;-77
2022/05/28 09:29:36;;;;;;;;;;;;;;;21.67;38.60;102383.47;6138313;23;19915;-79
2022/05/28 09:32:09;;;;;;;;;;;;;;;21.66;38.65;102386.06;6164269;23;19952;-79
2022/05/28 09:34:41;;;;;;;;;;;;;;;21.65;38.73;102376.50;6165051;23;20340;-79
2022/05/28 09:37:24;;;;;;;;;;;;;;;21.66;38.71;102378.22;6165100;23;19948;-79
2022/05/28 09:40:13;;;;;;;;;;;;;;;21.67;38.78;102382.59;6162905;23;19912;-78
2022/05/28 09:42:57;;;;;;;;;;;;;;;21.64;38.77;102375.59;6136636;23;19975;-78
2022/05/28 09:45:41;;;;;;;;;;;;;;;21.66;38.79;102391.31;6136839;23;19915;-77
2022/05/28 09:48:16;;;;;;;;;;;;;;;21.66;38.88;102380.84;6163280;23;19915;-77
2022/05/28 09:50:42;;;;;;;;;;;;;;;21.66;38.91;102380.84;6136941;23;19916;-77
2022/05/28 09:56:06;;;;;;;;;;;;;;;21.64;39.01;102383.47;6163876;23;19981;-77
2022/05/28 09:58:37;;;;;;;;;;;;;;;21.62;39.04;102387.81;6162617;23;20317;-78
2022/05/28 10:01:04;;;;;;;;;;;;;;;21.61;39.23;102383.47;6131510;23;20181;-78
2022/05/28 10:06:21;;;;;;;;;;;;;;;21.62;39.09;102376.47;6164934;23;19940;-80
2022/05/28 10:08:46;;;;;;;;;;;;;;;21.62;39.31;102377.34;6140233;23;19916;-78
2022/05/28 10:11:17;;;;;;;;;;;;;;;21.61;39.31;102385.22;6144439;23;19913;-80
2022/05/28 10:13:45;;;;;;;;;;;;;;;21.62;39.11;102366.88;6148591;23;19916;-81
2022/05/28 10:16:11;;;;;;;;;;;;;;;21.60;39.20;102376.50;6171315;23;19944;-80
2022/05/28 10:18:43;;;;;;;;;;;;;;;21.62;39.05;102363.38;6143707;23;19920;-80
2022/05/28 10:21:10;;;;;;;;;;;;;;;21.62;39.07;102364.25;6142543;23;19940;-80
2022/05/28 10:23:37;;;;;;;;;;;;;;;21.60;39.23;102378.22;6143614;23;19912;-80
2022/05/28 10:26:03;;;;;;;;;;;;;;;21.60;39.23;102375.59;6169668;23;19920;-80
2022/05/28 10:28:46;;;;;;;;;;;;;;;21.60;38.96;102381.75;6117884;23;20238;-80
2022/05/28 10:31:16;;;;;;;;;;;;;;;21.60;39.38;102375.59;6146066;23;19932;-80
2022/05/28 10:33:43;;;;;;;;;;;;;;;21.60;39.13;102378.22;6171100;23;19908;-80
2022/05/28 10:36:10;;;;;;;;;;;;;;;21.60;39.39;102368.66;6144934;23;19908;-79
2022/05/28 10:38:36;;;;;;;;;;;;;;;21.61;39.30;102367.75;6140981;23;20329;-78
2022/05/28 10:41:12;;;;;;;;;;;;;;;21.62;39.31;102371.25;6115193;23;19913;-80
2022/05/28 10:43:38;;;;;;;;;;;;;;;21.60;39.33;102371.25;6139395;23;19909;-79
2022/05/28 10:46:11;;;;;;;;;;;;;;;21.59;39.28;102366.03;6167950;23;19909;-80
2022/05/28 10:48:55;;;;;;;;;;;;;;;21.60;39.31;102370.38;6140380;23;19909;-80
2022/05/28 10:51:23;;;;;;;;;;;;;;;21.62;39.33;102371.25;6140745;23;19915;-80
2022/05/28 10:53:49;;;;;;;;;;;;;;;21.60;39.52;102371.25;6138327;23;20285;-80
2022/05/28 10:56:14;;;;;;;;;;;;;;;21.59;39.34;102376.50;6164747;23;20000;-80
2022/05/28 10:58:46;;;;;;;;;;;;;;;21.61;39.47;102364.28;6139616;23;19956;-80
2022/05/28 11:01:29;;;;;;;;;;;;;;;21.60;39.29;102365.13;6138922;23;19912;-80
2022/05/28 11:03:54;;;;;;;;;;;;;;;21.61;39.37;102364.28;6138301;23;19994;-80
2022/05/28 11:06:32;;;;;;;;;;;;;;;21.61;39.37;102364.28;6138436;23;19909;-80
2022/05/28 11:09:01;;;;;;;;;;;;;;;21.62;39.39;102372.09;6138791;23;19961;-79
2022/05/28 11:11:53;;;;;;;;;;;;;;;21.63;39.43;102365.13;6163626;23;19995;-80
2022/05/28 11:14:36;;;;;;;;;;;;;;;21.62;39.37;102366.00;6141238;23;20229;-79
2022/05/28 11:17:20;;;;;;;;;;;;;;;21.64;39.38;102369.50;6165528;23;19913;-79
2022/05/28 11:20:00;;;;;;;;;;;;;;;21.64;39.42;102372.09;6164047;23;19913;-80
2022/05/28 11:22:37;;;;;;;;;;;;;;;21.64;39.83;102377.34;6137600;23;19908;-78
2022/05/28 11:25:14;;;;;;;;;;;;;;;21.63;39.41;102373.00;6164370;23;20233;-78
2022/05/28 11:27:55;;;;;;;;;;;;;;;21.64;39.30;102364.25;6140672;23;19909;-79
2022/05/28 11:30:22;;;;;;;;;;;;;;;21.63;39.37;102359.91;6140534;23;19916;-79
2022/05/28 11:32:53;;;;;;;;;;;;;;;21.64;39.35;102366.88;6141011;23;19908;-78
2022/05/28 11:35:21;;;;;;;;;;;;;;;21.64;39.32;102370.34;6140411;23;19908;-79
2022/05/28 11:37:52;;;;;;;;;;;;;;;21.63;39.39;102360.75;6166121;23;19924;-79
2022/05/28 11:40:21;;;;;;;;;;;;;;;21.63;39.18;102360.75;6140169;23;20233;-79
2022/05/28 11:42:49;;;;;;;;;;;;;;;21.64;39.29;102364.25;6140757;23;19935;-79
2022/05/28 11:45:22;;;;;;;;;;;;;;;21.63;39.19;102371.25;6166093;23;19916;-79
2022/05/28 11:47:57;;;;;;;;;;;;;;;21.65;39.40;102368.63;6165446;23;19909;-79
2022/05/28 11:53:43;;;;;;;;;;;;;;;21.67;39.24;102359.03;6142652;23;19941;-79
2022/05/28 11:56:19;;;;;;;;;;;;;;;21.69;39.34;102363.38;6164985;23;19976;-78
2022/05/28 11:58:48;;;;;;;;;;;;;;;21.71;39.39;102358.09;6141119;23;19913;-79
2022/05/28 12:01:17;;;;;;;;;;;;;;;21.70;39.47;102348.53;6142120;23;19908;-78
2022/05/28 12:03:43;;;;;;;;;;;;;;;21.70;39.43;102361.63;6141671;23;19967;-78
2022/05/28 12:06:22;;;;;;;;;;;;;;;21.71;39.41;102351.16;6115644;23;19935;-78
2022/05/28 12:09:18;;;;;;;;;;;;;;;21.70;39.53;102354.63;6165167;23;19920;-78
2022/05/28 12:12:02;;;;;;;;;;;;;;;21.71;39.71;102353.75;6165307;23;19908;-78
2022/05/28 12:14:35;;;;;;;;;;;;;;;21.72;39.48;102341.53;6141588;23;19908;-78
2022/05/28 12:17:04;;;;;;;;;;;;;;;21.72;39.53;102354.63;6142202;23;19935;-78
2022/05/28 12:19:29;;;;;;;;;;;;;;;21.72;39.60;102346.78;6139647;23;19913;-78
2022/05/28 12:22:05;;;;;;;;;;;;;;;21.73;39.55;102351.13;6167652;23;19915;-78
2022/05/28 12:24:30;;;;;;;;;;;;;;;21.72;39.67;102339.78;6169156;23;19955;-78
2022/05/28 12:29:33;;;;;;;;;;;;;;;21.74;39.69;102338.03;6166026;23;19908;-78
2022/05/28 12:32:17;;;;;;;;;;;;;;;21.73;39.60;102354.63;6140070;23;19909;-78
2022/05/28 12:34:58;;;;;;;;;;;;;;;21.74;39.51;102340.66;6139924;23;19908;-77
2022/05/28 12:37:30;;;;;;;;;;;;;;;21.75;39.61;102345.03;6166865;23;19931;-76
2022/05/28 12:39:59;;;;;;;;;;;;;;;21.74;39.71;102338.03;6167921;23;19912;-77
2022/05/28 12:42:27;;;;;;;;;;;;;;;21.75;39.79;102336.25;6168572;23;20237;-78
2022/05/28 12:44:53;;;;;;;;;;;;;;;21.74;39.49;102347.63;6169484;23;19913;-78
2022/05/28 12:47:25;;;;;;;;;;;;;;;21.74;39.66;102347.63;6144131;23;20219;-78
2022/05/28 12:49:58;;;;;;;;;;;;;;;21.74;39.58;102345.03;6150690;23;19948;-79
2022/05/28 12:52:24;;;;;;;;;;;;;;;21.75;39.74;102344.13;6177176;23;19908;-79
2022/05/28 12:54:58;;;;;;;;;;;;;;;21.75;39.58;102345.03;6175268;23;19957;-79
2022/05/28 12:57:29;;;;;;;;;;;;;;;21.76;39.68;102343.28;6146006;23;19932;-79
2022/05/28 13:00:18;;;;;;;;;;;;;;;21.74;39.82;102326.69;6145493;23;19935;-78